Time;durP1;ratioP1;P1;durP2;ratioP2;P2;SDS_P1;SDS_P2;PMS_P1;PMS_P2;Temp;Humidity;BMP_temperature;BMP_pressure;BME280_temperature;BME280_humidity;BME280_pressure;Samples;Min_cycle;Max_cycle;Signal;HPM_P1;HPM_P2
2023/07/14 00:00:22;;;;;;;7.85;5.70;;;;;;;24.66;70.01;65596.50;5052444;28;20201;-59
2023/07/14 00:02:50;;;;;;;8.68;5.68;;;;;;;24.64;69.73;65594.84;5052481;28;20236;-53
2023/07/14 00:05:18;;;;;;;8.68;5.90;;;;;;;24.69;69.42;65600.38;5052553;28;20193;-53
2023/07/14 00:07:45;;;;;;;10.52;6.03;;;;;;;24.53;71.55;65580.06;5052407;28;20217;-53
2023/07/14 00:10:20;;;;;;;12.10;5.68;;;;;;;24.62;72.21;65592.63;5052206;28;20193;-53
2023/07/14 00:12:48;;;;;;;7.75;5.93;;;;;;;24.64;72.06;65594.84;5052358;28;20702;-54
2023/07/14 00:15:14;;;;;;;10.00;5.25;;;;;;;24.48;74.21;65576.53;5052295;28;20273;-52
2023/07/14 00:17:40;;;;;;;9.38;5.85;;;;;;;24.19;74.07;65547.50;5052085;28;20244;-53
2023/07/14 00:20:39;;;;;;;11.63;6.10;;;;;;;24.43;74.27;65568.41;5052231;28;20193;-54
2023/07/14 00:23:13;;;;;;;9.70;5.80;;;;;;;24.48;74.64;65573.97;4997510;28;20224;-53
2023/07/14 00:25:39;;;;;;;11.30;6.05;;;;;;;24.54;74.01;65583.75;5052023;28;20292;-54
2023/07/14 00:28:14;;;;;;;8.15;6.25;;;;;;;24.41;74.71;65568.78;5052248;28;20264;-53
2023/07/14 00:30:40;;;;;;;10.10;6.15;;;;;;;24.33;75.51;65560.47;5052369;28;20208;-56
2023/07/14 00:33:12;;;;;;;8.82;5.20;;;;;;;24.36;75.75;65563.78;5052175;28;20590;-56
2023/07/14 00:35:38;;;;;;;10.50;6.10;;;;;;;24.45;75.30;65571.19;5052079;28;20206;-52
2023/07/14 00:38:05;;;;;;;9.25;5.63;;;;;;;24.38;75.48;65565.44;5051876;28;20718;-56
2023/07/14 00:40:37;;;;;;;10.50;6.38;;;;;;;24.36;76.52;65563.78;5052114;28;20198;-58
2023/07/14 00:43:05;;;;;;;8.38;6.25;;;;;;;24.21;76.17;65547.16;5034005;28;20212;-53
2023/07/14 00:45:33;;;;;;;10.43;5.97;;;;;;;24.10;77.60;65532.38;5051974;28;20221;-53
2023/07/14 00:48:04;;;;;;;11.68;5.68;;;;;;;24.01;78.26;65525.53;5051275;28;20193;-53
2023/07/14 00:51:10;;;;;;;7.53;5.57;;;;;;;24.00;77.94;65524.41;5051740;28;20201;-53
2023/07/14 00:53:38;;;;;;;10.23;6.10;;;;;;;23.88;78.61;65510.53;5038380;28;20294;-53
2023/07/14 00:56:10;;;;;;;10.93;5.65;;;;;;;23.79;80.08;65501.13;5052097;28;20285;-54
2023/07/14 00:58:38;;;;;;;13.00;6.68;;;;;;;23.64;80.71;65487.06;5051740;28;20225;-53
2023/07/14 01:01:10;;;;;;;8.55;6.22;;;;;;;23.61;80.91;65481.19;5033676;28;20205;-53
2023/07/14 01:03:44;;;;;;;10.95;6.65;;;;;;;23.91;80.79;65516.44;5050224;28;20654;-53
2023/07/14 01:06:15;;;;;;;7.63;5.93;;;;;;;23.90;80.69;65512.75;5051657;28;20295;-53
2023/07/14 01:08:50;;;;;;;9.55;6.38;;;;;;;23.73;82.07;65493.91;5051650;28;20206;-55
2023/07/14 01:11:20;;;;;;;9.55;6.60;;;;;;;23.58;84.03;65483.00;5051408;28;20208;-53
2023/07/14 01:13:46;;;;;;;9.50;6.68;;;;;;;23.50;85.96;65468.41;5051550;28;20212;-57
2023/07/14 01:16:17;;;;;;;12.30;6.90;;;;;;;23.40;87.83;65457.34;5051559;28;20679;-53
2023/07/14 01:18:45;;;;;;;15.95;7.05;;;;;;;23.44;88.25;65462.34;5033471;28;20250;-53
2023/07/14 01:21:11;;;;;;;11.77;7.30;;;;;;;23.41;89.27;65459.03;5051439;28;20994;-53
2023/07/14 01:23:39;;;;;;;13.05;7.60;;;;;;;23.48;90.56;65469.34;5051161;28;20335;-53
2023/07/14 01:26:23;;;;;;;17.15;7.63;;;;;;;23.59;90.93;65476.38;5051408;28;20248;-54
2023/07/14 01:28:48;;;;;;;10.82;6.97;;;;;;;23.76;89.63;65499.81;5051125;28;20230;-52
2023/07/14 01:31:20;;;;;;;14.20;7.25;;;;;;;23.88;89.42;65507.97;5051236;28;20703;-55
2023/07/14 01:33:46;;;;;;;10.60;7.32;;;;;;;23.79;91.63;65503.16;5051042;28;20229;-54
2023/07/14 01:36:11;;;;;;;15.95;8.20;;;;;;;23.65;92.24;65488.19;5049786;28;20289;-54
2023/07/14 01:38:38;;;;;;;10.80;7.25;;;;;;;23.63;93.08;65480.25;5050930;28;20669;-55
2023/07/14 01:41:05;;;;;;;11.65;7.95;;;;;;;23.53;93.91;65469.75;5033248;28;20680;-56
2023/07/14 01:43:32;;;;;;;10.60;6.47;;;;;;;23.60;93.49;65482.06;5050912;28;20214;-52
2023/07/14 01:46:00;;;;;;;18.73;8.52;;;;;;;23.65;92.69;65487.63;5051045;28;20212;-54
2023/07/14 01:48:46;;;;;;;12.80;7.70;;;;;;;23.69;92.96;65490.03;5051050;28;20236;-52
2023/07/14 01:51:13;;;;;;;12.27;7.68;;;;;;;23.75;92.44;65496.13;5050931;28;20205;-52
2023/07/14 01:54:00;;;;;;;15.73;7.38;;;;;;;23.74;92.67;65492.44;5049560;28;20251;-52
2023/07/14 01:56:28;;;;;;;10.40;7.65;;;;;;;23.68;92.71;65486.34;5050708;28;20209;-53
2023/07/14 01:59:15;;;;;;;13.43;7.80;;;;;;;23.69;92.81;65490.03;5049462;28;20217;-52
2023/07/14 02:01:44;;;;;;;12.02;8.25;;;;;;;23.74;92.99;65495.56;5033225;28;20267;-53
2023/07/14 02:04:26;;;;;;;14.95;7.90;;;;;;;23.66;93.22;65486.72;5050552;28;20190;-52
2023/07/14 02:06:52;;;;;;;10.13;7.78;;;;;;;23.54;93.67;65476.00;5050851;28;20220;-52
2023/07/14 02:09:20;;;;;;;12.77;7.45;;;;;;;23.64;92.66;65483.94;5050529;28;20201;-52
2023/07/14 02:11:55;;;;;;;15.60;7.57;;;;;;;23.63;90.49;65482.84;5050626;28;20209;-53
2023/07/14 02:14:23;;;;;;;10.90;6.95;;;;;;;23.55;92.44;65473.97;5050388;28;20297;-53
2023/07/14 02:16:51;;;;;;;13.30;7.53;;;;;;;23.39;93.38;65456.81;5050318;28;20278;-53
2023/07/14 02:19:21;;;;;;;11.93;7.40;;;;;;;23.39;94.15;65456.81;5050421;28;20209;-52
2023/07/14 02:21:48;;;;;;;11.75;7.43;;;;;;;23.37;93.91;65454.03;5050843;28;20236;-56
2023/07/14 02:24:20;;;;;;;11.32;7.10;;;;;;;23.29;93.85;65443.66;5050312;28;20218;-53
2023/07/14 02:26:55;;;;;;;11.20;7.40;;;;;;;23.51;93.03;65469.53;5050587;28;20202;-53
2023/07/14 02:29:21;;;;;;;10.73;7.72;;;;;;;23.43;92.81;65461.22;5050498;28;20262;-56
2023/07/14 02:31:47;;;;;;;11.40;7.65;;;;;;;23.42;93.20;65460.13;5050486;28;20639;-52
2023/07/14 02:34:15;;;;;;;10.35;6.97;;;;;;;23.42;93.50;65462.13;5050361;28;20238;-52
2023/07/14 02:36:54;;;;;;;10.60;7.70;;;;;;;23.28;95.05;65445.13;5049932;28;20698;-54
2023/07/14 02:39:19;;;;;;;14.80;8.45;;;;;;;23.45;93.86;65465.47;5050100;28;20698;-53
2023/07/14 02:41:47;;;;;;;12.98;7.63;;;;;;;23.35;94.61;65450.34;5049955;28;20292;-59
2023/07/14 02:44:15;;;;;;;14.68;7.95;;;;;;;23.26;95.88;65445.50;5050130;28;20198;-59
2023/07/14 02:46:53;;;;;;;18.00;8.35;;;;;;;23.51;94.49;65467.53;5050356;28;20225;-53
2023/07/14 02:49:19;;;;;;;13.63;8.00;;;;;;;23.65;93.67;65483.03;5050055;28;20640;-53
2023/07/14 02:51:45;;;;;;;13.00;8.02;;;;;;;23.51;94.52;65472.13;5050093;28;20208;-53
2023/07/14 02:54:10;;;;;;;19.88;7.53;;;;;;;23.52;94.82;65470.63;5050007;28;20715;-53
2023/07/14 02:56:36;;;;;;;14.68;7.63;;;;;;;23.38;96.32;65452.56;5050418;28;20633;-59
2023/07/14 02:59:02;;;;;;;16.23;9.48;;;;;;;23.28;96.28;65442.00;5049689;28;20209;-54
2023/07/14 03:01:29;;;;;;;15.77;8.43;;;;;;;23.06;97.24;65420.78;5049864;28;20233;-53
2023/07/14 03:03:56;;;;;;;16.02;8.48;;;;;;;22.79;98.33;65390.84;5049793;28;20200;-53
2023/07/14 03:06:22;;;;;;;13.40;8.55;;;;;;;23.00;97.28;65414.13;5049591;28;20217;-53
2023/07/14 03:08:47;;;;;;;16.90;8.90;;;;;;;22.90;97.62;65405.06;5049713;28;20745;-54
2023/07/14 03:11:13;;;;;;;15.10;8.15;;;;;;;22.74;97.86;65384.78;5052126;28;20209;-54
2023/07/14 03:13:39;;;;;;;12.55;7.57;;;;;;;22.75;96.14;65385.88;5053052;28;20212;-52
2023/07/14 03:16:05;;;;;;;14.25;8.05;;;;;;;22.95;94.68;65408.00;5053221;28;20283;-53
2023/07/14 03:18:30;;;;;;;10.98;8.13;;;;;;;22.72;94.30;65382.56;5052957;28;20276;-53
2023/07/14 03:20:58;;;;;;;12.15;7.47;;;;;;;22.53;94.24;65360.03;5053147;28;20237;-53
2023/07/14 03:23:24;;;;;;;15.27;7.95;;;;;;;22.38;95.08;65345.44;5052899;28;20258;-53
2023/07/14 03:25:54;;;;;;;13.77;8.70;;;;;;;22.41;95.18;65346.75;5052860;28;20197;-53
2023/07/14 03:28:19;;;;;;;13.88;7.90;;;;;;;22.44;95.21;65352.09;5053035;28;20286;-58
2023/07/14 03:30:45;;;;;;;12.25;7.35;;;;;;;22.53;93.54;65364.63;5051353;28;20356;-56
2023/07/14 03:33:10;;;;;;;15.57;8.68;;;;;;;22.48;95.44;65356.53;5052885;28;20758;-52
2023/07/14 03:35:36;;;;;;;15.75;7.80;;;;;;;22.59;93.72;65368.16;5052838;28;20201;-52
2023/07/14 03:38:04;;;;;;;10.63;7.60;;;;;;;22.31;94.98;65337.69;5051368;28;20205;-53
2023/07/14 03:40:30;;;;;;;12.35;6.93;;;;;;;22.23;96.98;65326.81;5052711;28;20201;-53
2023/07/14 03:42:55;;;;;;;11.48;7.35;;;;;;;22.23;94.39;65331.41;5052677;28;20205;-53
2023/07/14 03:45:21;;;;;;;16.85;8.55;;;;;;;22.48;92.51;65356.53;5052602;28;20201;-53
2023/07/14 03:47:47;;;;;;;18.67;9.77;;;;;;;22.59;91.99;65368.72;5052429;28;20217;-57
2023/07/14 03:50:13;;;;;;;13.45;7.50;;;;;;;22.63;92.10;65375.72;5052739;28;20194;-57
2023/07/14 03:52:41;;;;;;;13.27;9.00;;;;;;;22.68;92.03;65375.56;5052769;28;20239;-55
2023/07/14 03:55:07;;;;;;;15.10;8.32;;;;;;;22.81;92.12;65393.06;5052454;28;20722;-53
2023/07/14 03:57:33;;;;;;;12.70;7.68;;;;;;;23.04;91.15;65418.56;5052570;28;20217;-53
2023/07/14 04:00:12;;;;;;;17.08;8.50;;;;;;;23.24;91.21;65438.13;5050941;28;20217;-53
2023/07/14 04:02:42;;;;;;;11.23;7.25;;;;;;;23.38;89.30;65455.13;5050863;28;20589;-53
2023/07/14 04:05:09;;;;;;;13.48;7.55;;;;;;;23.25;90.03;65444.38;5052067;28;20202;-53
2023/07/14 04:07:36;;;;;;;12.05;8.45;;;;;;;23.30;90.78;65449.94;5051905;28;20217;-52
2023/07/14 04:10:04;;;;;;;14.98;8.48;;;;;;;22.99;92.89;65413.00;5051975;28;20753;-54
2023/07/14 04:12:33;;;;;;;10.65;8.52;;;;;;;22.81;94.88;65393.06;5052154;28;20205;-53
2023/07/14 04:14:59;;;;;;;15.13;8.40;;;;;;;23.16;92.34;65431.28;5051888;28;20240;-56
2023/07/14 04:17:25;;;;;;;17.88;8.50;;;;;;;23.21;92.48;65434.81;5051943;28;20292;-53
2023/07/14 04:19:51;;;;;;;14.02;8.65;;;;;;;23.06;94.22;65420.78;5051583;28;20217;-53
2023/07/14 04:22:18;;;;;;;10.85;8.30;;;;;;;23.13;94.76;65427.94;5050959;28;20219;-53
2023/07/14 04:24:44;;;;;;;11.98;8.35;;;;;;;23.09;93.62;65426.66;5051641;28;20229;-54
2023/07/14 04:27:09;;;;;;;16.00;9.05;;;;;;;23.25;92.70;65441.81;5051802;28;20233;-53
2023/07/14 04:29:36;;;;;;;14.50;8.18;;;;;;;23.21;92.49;65436.84;5051697;28;20221;-53
2023/07/14 04:32:02;;;;;;;16.95;9.20;;;;;;;23.19;92.04;65435.16;5051472;28;20217;-53
2023/07/14 04:34:27;;;;;;;19.15;8.82;;;;;;;23.26;85.51;65442.94;5051709;28;20202;-54
2023/07/14 04:36:53;;;;;;;16.98;8.40;;;;;;;23.26;84.23;65442.38;5051431;28;20596;-53
2023/07/14 04:39:19;;;;;;;15.55;7.95;;;;;;;23.30;81.04;65444.22;5051292;28;20252;-56
2023/07/14 04:41:44;;;;;;;15.02;8.57;;;;;;;23.30;79.66;65447.34;5051642;28;20201;-54
2023/07/14 04:44:13;;;;;;;17.17;8.45;;;;;;;23.30;78.75;65446.81;5051684;28;20209;-53
2023/07/14 04:46:40;;;;;;;13.77;8.27;;;;;;;23.29;78.63;65446.25;5051645;28;20205;-56
2023/07/14 04:49:09;;;;;;;40.17;32.78;;;;;;;23.43;80.88;65458.09;5051448;28;20214;-53
2023/07/14 04:51:36;;;;;;;16.05;9.98;;;;;;;23.43;78.75;65458.09;5051352;28;20320;-58
2023/07/14 04:54:01;;;;;;;22.40;15.65;;;;;;;23.56;78.58;65475.06;5051143;28;20213;-53
2023/07/14 04:56:27;;;;;;;14.43;9.45;;;;;;;23.66;77.41;65484.13;5051234;28;20202;-58
2023/07/14 04:58:53;;;;;;;17.40;10.65;;;;;;;23.76;77.14;65497.22;5051289;28;20221;-55
2023/07/14 05:01:19;;;;;;;14.73;9.52;;;;;;;23.75;77.39;65496.69;5051552;28;20200;-53
2023/07/14 05:03:44;;;;;;;16.90;8.70;;;;;;;23.95;78.13;65518.88;5051250;28;20209;-53
2023/07/14 05:06:11;;;;;;;13.23;8.05;;;;;;;24.06;77.88;65527.94;5051073;28;20205;-53
2023/07/14 05:08:36;;;;;;;16.05;9.20;;;;;;;24.13;78.79;65538.84;5050959;28;20281;-52
2023/07/14 05:11:02;;;;;;;16.77;9.00;;;;;;;24.10;79.95;65532.38;5051442;28;20299;-53
2023/07/14 05:13:28;;;;;;;15.63;9.68;;;;;;;24.45;82.32;65570.63;5051265;28;20667;-54
2023/07/14 05:15:56;;;;;;;15.88;8.63;;;;;;;24.38;80.35;65565.44;5051193;28;20636;-53
2023/07/14 05:18:23;;;;;;;13.55;8.73;;;;;;;24.30;81.98;65554.00;5050896;28;20229;-53
2023/07/14 05:20:49;;;;;;;12.63;8.20;;;;;;;24.43;81.26;65568.97;5050882;28;20220;-53
2023/07/14 05:23:15;;;;;;;15.65;8.98;;;;;;;24.45;83.21;65576.34;5050785;28;20585;-53
2023/07/14 05:25:41;;;;;;;12.43;8.77;;;;;;;24.52;80.88;65578.41;5050796;28;20305;-54
2023/07/14 05:28:06;;;;;;;15.15;9.40;;;;;;;24.69;83.99;65600.38;5050838;28;20212;-55
2023/07/14 05:30:33;;;;;;;13.00;9.02;;;;;;;24.82;79.49;65614.28;5050951;28;20205;-56
2023/07/14 05:32:59;;;;;;;11.15;8.43;;;;;;;24.98;80.21;65630.00;5050677;28;20197;-55
2023/07/14 05:35:25;;;;;;;15.85;8.13;;;;;;;25.05;79.13;65636.66;5050889;28;20208;-57
2023/07/14 05:37:51;;;;;;;19.05;8.27;;;;;;;24.79;79.64;65611.50;5050402;28;20602;-56
2023/07/14 05:40:17;;;;;;;11.75;8.60;;;;;;;24.57;80.87;65583.94;5050469;28;20193;-55
2023/07/14 05:42:43;;;;;;;11.20;8.45;;;;;;;24.47;82.19;65575.97;5050451;28;20209;-58
2023/07/14 05:45:10;;;;;;;10.85;8.15;;;;;;;24.29;81.89;65555.47;5050210;28;20288;-54
2023/07/14 05:47:38;;;;;;;14.30;8.38;;;;;;;24.36;82.15;65563.25;5048602;28;20210;-54
2023/07/14 05:50:05;;;;;;;17.42;9.52;;;;;;;24.40;82.60;65565.09;5050372;28;20193;-54
2023/07/14 05:52:32;;;;;;;20.00;8.98;;;;;;;24.47;82.34;65573.41;5053726;22;20229;-54
2023/07/14 05:54:57;;;;;;;13.45;7.80;;;;;;;24.46;81.90;65574.88;5070212;28;20200;-53
2023/07/14 05:57:23;;;;;;;19.05;8.23;;;;;;;24.43;81.86;65571.00;5054945;28;20313;-53
2023/07/14 05:59:49;;;;;;;10.70;8.48;;;;;;;24.43;82.69;65571.00;5050263;28;20288;-57
2023/07/14 06:02:15;;;;;;;11.43;8.25;;;;;;;24.49;83.30;65575.63;5050532;28;20270;-53
2023/07/14 06:04:41;;;;;;;14.27;8.77;;;;;;;24.46;82.57;65571.75;5050426;28;20185;-54
2023/07/14 06:07:09;;;;;;;15.82;9.07;;;;;;;24.61;82.02;65591.50;5050724;28;20245;-53
2023/07/14 06:09:36;;;;;;;14.05;8.25;;;;;;;24.68;82.24;65599.28;5050438;28;20201;-55
2023/07/14 06:12:07;;;;;;;13.38;8.32;;;;;;;24.67;84.09;65595.59;5050507;28;20221;-53
2023/07/14 06:14:34;;;;;;;11.55;8.38;;;;;;;24.75;81.07;65604.47;5050308;28;20201;-52
2023/07/14 06:17:01;;;;;;;13.55;8.23;;;;;;;24.79;81.88;65608.91;5050512;28;20308;-54
2023/07/14 06:19:27;;;;;;;12.52;8.95;;;;;;;24.83;82.58;65612.81;5050142;28;20245;-54
2023/07/14 06:21:54;;;;;;;13.93;9.55;;;;;;;25.18;81.72;65654.22;5067546;22;20235;-54
2023/07/14 06:24:20;;;;;;;22.38;9.50;;;;;;;24.94;81.25;65625.56;5070013;28;20196;-54
2023/07/14 06:26:45;;;;;;;22.10;10.77;;;;;;;25.01;83.16;65632.78;5051940;28;20220;-54
2023/07/14 06:29:12;;;;;;;35.70;20.15;;;;;;;24.87;83.37;65620.38;5052463;28;20215;-54
2023/07/14 06:31:38;;;;;;;37.78;19.58;;;;;;;24.85;83.81;65615.00;5069008;28;20225;-54
2023/07/14 06:34:04;;;;;;;18.33;9.80;;;;;;;24.83;83.08;65613.34;5051956;28;20204;-53
2023/07/14 06:36:30;;;;;;;13.52;10.07;;;;;;;25.10;82.35;65645.34;5069963;28;20208;-55
2023/07/14 06:38:55;;;;;;;133.13;60.00;;;;;;;25.12;83.45;65644.44;5069811;28;20292;-53
2023/07/14 06:41:20;;;;;;;50.42;22.60;;;;;;;25.13;84.15;65646.09;5035247;28;20217;-54
2023/07/14 06:43:46;;;;;;;203.68;86.00;;;;;;;25.11;82.76;65643.31;5069620;28;20720;-54
2023/07/14 06:46:11;;;;;;;52.45;22.90;;;;;;;25.19;82.75;65652.75;5071801;28;20315;-54
2023/07/14 06:48:37;;;;;;;503.02;221.35;;;;;;;25.25;82.89;65659.41;5073400;28;20694;-54
2023/07/14 06:51:02;;;;;;;1366.18;619.08;;;;;;;25.33;83.26;65670.84;5073379;28;20683;-55
2023/07/14 06:53:28;;;;;;;57.70;25.42;;;;;;;25.33;82.17;65665.16;5073194;28;20306;-53
2023/07/14 06:55:54;;;;;;;825.97;379.35;;;;;;;25.33;81.56;65667.75;5073287;28;20213;-54
2023/07/14 06:58:20;;;;;;;1217.90;504.63;;;;;;;25.48;81.01;65684.41;5073277;28;20239;-54
2023/07/14 07:00:46;;;;;;;76.60;24.67;;;;;;;25.55;80.14;65692.19;5073255;28;20663;-55
2023/07/14 07:03:17;;;;;;;17.63;8.50;;;;;;;25.66;79.26;65704.38;5073113;28;20270;-54
2023/07/14 07:05:44;;;;;;;997.22;467.70;;;;;;;25.71;80.27;65709.94;5073117;28;20216;-54
2023/07/14 07:08:12;;;;;;;42.20;19.65;;;;;;;25.59;81.31;65696.63;5073026;28;20196;-54
2023/07/14 07:10:40;;;;;;;166.40;57.75;;;;;;;25.65;81.71;65703.28;5072853;28;20215;-53
2023/07/14 07:13:06;;;;;;;256.40;100.15;;;;;;;25.61;81.62;65698.84;5073232;28;20200;-53
2023/07/14 07:15:31;;;;;;;203.55;68.68;;;;;;;25.69;81.40;65707.72;5072713;28;20620;-57
2023/07/14 07:17:57;;;;;;;401.50;150.73;;;;;;;25.74;80.00;65713.81;5072933;28;20208;-54
2023/07/14 07:20:22;;;;;;;192.02;58.55;;;;;;;25.63;79.67;65699.03;5073114;28;20207;-53
2023/07/14 07:22:48;;;;;;;11.40;8.07;;;;;;;26.00;79.28;65744.72;5054654;28;20235;-55
2023/07/14 07:25:14;;;;;;;46.85;19.50;;;;;;;25.84;78.62;65724.38;5072728;28;20204;-54
2023/07/14 07:27:40;;;;;;;71.90;23.48;;;;;;;25.91;75.84;65731.59;5072597;28;20209;-55
2023/07/14 07:30:06;;;;;;;78.97;28.13;;;;;;;26.00;77.64;65742.13;5072741;28;20591;-53
2023/07/14 07:32:32;;;;;;;32.42;14.25;;;;;;;25.90;77.47;65731.03;5071293;28;20212;-55
2023/07/14 07:34:59;;;;;;;223.40;78.32;;;;;;;25.91;75.75;65731.59;5071254;28;20200;-55
2023/07/14 07:37:29;;;;;;;38.78;18.02;;;;;;;25.97;74.39;65738.25;5072602;28;20722;-53
2023/07/14 07:39:55;;;;;;;181.18;61.95;;;;;;;25.97;75.88;65738.81;5072334;28;20205;-54
2023/07/14 07:42:21;;;;;;;36.42;16.00;;;;;;;26.03;75.29;65748.06;5072625;28;20341;-53
2023/07/14 07:44:47;;;;;;;32.53;14.82;;;;;;;25.99;74.75;65741.03;5072611;28;20613;-53
2023/07/14 07:47:12;;;;;;;16.60;9.10;;;;;;;26.01;75.05;65742.69;5072605;28;20213;-53
2023/07/14 07:49:39;;;;;;;20.10;10.63;;;;;;;26.07;74.64;65752.53;5054368;28;20662;-54
2023/07/14 07:52:06;;;;;;;18.88;9.95;;;;;;;26.11;74.07;65751.22;5072543;28;20320;-54
2023/07/14 07:54:32;;;;;;;11.43;8.15;;;;;;;26.23;75.55;65767.16;5072204;28;20279;-54
2023/07/14 07:56:58;;;;;;;33.17;15.57;;;;;;;26.33;74.64;65778.81;5070751;28;20285;-54
2023/07/14 07:59:24;;;;;;;33.53;14.82;;;;;;;26.40;75.71;65786.03;5072105;28;20251;-53
2023/07/14 08:01:49;;;;;;;117.85;43.92;;;;;;;26.49;74.77;65796.03;5054207;28;20702;-55
2023/07/14 08:04:16;;;;;;;13.02;7.25;;;;;;;26.80;71.53;65829.94;5072164;28;20193;-53
2023/07/14 08:06:42;;;;;;;11.45;8.15;;;;;;;26.77;73.57;65827.16;5072448;28;20249;-54
2023/07/14 08:09:09;;;;;;;130.77;46.05;;;;;;;26.74;74.09;65823.28;5071970;28;20200;-53
2023/07/14 08:11:35;;;;;;;19.75;10.82;;;;;;;26.80;72.33;65830.50;5070610;28;20550;-54
2023/07/14 08:14:02;;;;;;;12.77;7.75;;;;;;;26.79;71.59;65828.81;5072156;28;20219;-52
2023/07/14 08:16:29;;;;;;;22.88;11.43;;;;;;;26.87;70.69;65835.69;5072176;28;20224;-53
2023/07/14 08:18:54;;;;;;;16.30;8.25;;;;;;;27.04;72.90;65856.63;5071871;28;20740;-53
2023/07/14 08:21:20;;;;;;;25.15;11.85;;;;;;;27.08;70.99;65861.06;5071699;28;20209;-53
2023/07/14 08:23:46;;;;;;;10.32;7.68;;;;;;;27.30;71.22;65886.09;5071885;28;20201;-53
2023/07/14 08:26:12;;;;;;;15.18;8.15;;;;;;;27.49;67.45;65903.53;5071665;28;20213;-54
2023/07/14 08:28:39;;;;;;;36.35;15.40;;;;;;;27.30;69.08;65883.50;5071639;28;20279;-54
2023/07/14 08:31:08;;;;;;;16.50;8.63;;;;;;;27.31;70.38;65886.66;5071856;28;20274;-55
2023/07/14 08:33:35;;;;;;;8.45;7.00;;;;;;;27.67;67.97;65924.09;5071643;28;20750;-53
2023/07/14 08:36:03;;;;;;;12.45;7.15;;;;;;;27.61;69.59;65920.03;5071686;28;20293;-53
2023/07/14 08:38:33;;;;;;;22.40;10.75;;;;;;;27.49;69.39;65904.09;5071482;28;20204;-54
2023/07/14 08:41:23;;;;;;;99.90;36.97;;;;;;;27.55;68.14;65913.34;5071674;28;20220;-53
2023/07/14 08:44:00;;;;;;;14.15;8.00;;;;;;;27.64;67.44;65920.75;5071771;28;20192;-53
2023/07/14 08:46:46;;;;;;;8.90;6.90;;;;;;;28.06;67.37;65966.94;5071321;28;20291;-53
2023/07/14 08:49:41;;;;;;;13.00;8.25;;;;;;;28.10;65.67;65973.97;5071464;28;20589;-53
2023/07/14 08:52:19;;;;;;;33.13;13.93;;;;;;;28.06;68.41;65970.09;5071268;28;20702;-53
2023/07/14 08:54:49;;;;;;;108.10;43.75;;;;;;;28.34;68.85;66000.13;5071488;28;20257;-53
2023/07/14 08:57:23;;;;;;;12.82;8.00;;;;;;;28.52;67.86;66020.72;5053402;28;20262;-54
2023/07/14 08:59:54;;;;;;;14.73;8.02;;;;;;;28.44;64.18;66011.81;5071319;28;20304;-54
2023/07/14 09:02:25;;;;;;;9.98;7.75;;;;;;;28.38;61.90;66004.59;5071242;28;20200;-54
2023/07/14 09:05:11;;;;;;;12.18;7.80;;;;;;;28.32;59.88;65997.91;5071121;28;20208;-53
2023/07/14 09:07:37;;;;;;;13.73;7.40;;;;;;;28.22;62.13;65985.28;5070637;28;20234;-53
2023/07/14 09:10:04;;;;;;;14.73;7.85;;;;;;;28.26;61.22;65989.19;5071069;28;20180;-53
2023/07/14 09:12:41;;;;;;;14.65;7.47;;;;;;;28.32;62.28;65995.31;5070960;28;20710;-53
2023/07/14 09:15:11;;;;;;;16.75;9.55;;;;;;;28.41;64.67;66007.91;5070897;28;20211;-54
2023/07/14 09:17:42;;;;;;;9.57;7.95;;;;;;;28.44;63.54;66011.25;5071015;28;20306;-53
2023/07/14 09:20:34;;;;;;;9.85;7.15;;;;;;;28.82;63.77;66053.56;5070719;28;20722;-55
2023/07/14 09:23:09;;;;;;;13.95;8.98;;;;;;;28.70;63.91;66035.03;5071009;28;20707;-53
2023/07/14 09:25:45;;;;;;;10.68;7.93;;;;;;;28.88;62.03;66057.66;5052646;28;20208;-53
2023/07/14 09:28:17;;;;;;;17.58;7.43;;;;;;;29.19;61.80;66097.38;5071373;28;20223;-53
2023/07/14 09:30:45;;;;;;;10.35;7.40;;;;;;;29.17;63.06;66092.00;5052721;28;20762;-53
2023/07/14 09:33:14;;;;;;;12.48;9.20;;;;;;;29.10;59.69;66084.75;5070847;28;20220;-54
2023/07/14 09:35:41;;;;;;;15.65;8.38;;;;;;;29.15;63.22;66090.31;5070650;28;20239;-52
2023/07/14 09:38:26;;;;;;;11.63;7.93;;;;;;;29.56;64.28;66136.00;5070305;28;20208;-53
2023/07/14 09:40:58;;;;;;;12.80;7.70;;;;;;;29.70;61.34;66151.59;5070547;28;20678;-54
2023/07/14 09:43:24;;;;;;;14.40;8.60;;;;;;;29.57;57.66;66134.50;5070097;28;20197;-53
2023/07/14 09:45:54;;;;;;;16.67;8.27;;;;;;;29.63;58.94;66141.22;5069215;28;20254;-54
2023/07/14 09:48:26;;;;;;;14.30;8.00;;;;;;;29.56;56.04;66136.00;5070682;28;20184;-53
2023/07/14 09:51:00;;;;;;;11.93;8.02;;;;;;;29.51;53.35;66127.81;5070466;28;20295;-52
2023/07/14 09:53:31;;;;;;;17.92;9.38;;;;;;;29.75;53.59;66154.03;5070638;28;20296;-52
2023/07/14 09:56:00;;;;;;;13.52;8.07;;;;;;;29.76;53.31;66157.75;5070620;28;20675;-52
2023/07/14 09:58:28;;;;;;;16.35;8.05;;;;;;;29.75;54.15;66154.03;5070181;28;20251;-56
2023/07/14 10:00:57;;;;;;;16.65;8.25;;;;;;;29.67;53.45;66145.66;5070494;28;20208;-53
2023/07/14 10:03:30;;;;;;;12.63;8.63;;;;;;;30.00;54.64;66178.72;5070286;28;20337;-56
2023/07/14 10:06:11;;;;;;;12.38;7.65;;;;;;;30.48;52.49;66237.44;5052120;28;20251;-52
2023/07/14 10:08:56;;;;;;;12.05;8.40;;;;;;;30.70;53.73;66259.38;5070309;28;20250;-53
2023/07/14 10:11:28;;;;;;;15.25;8.07;;;;;;;30.81;53.26;66271.06;5050795;28;20217;-52
2023/07/14 10:14:05;;;;;;;13.13;8.40;;;;;;;30.84;51.94;66275.00;5070246;28;20208;-53
2023/07/14 10:16:32;;;;;;;10.95;7.38;;;;;;;31.16;51.79;66310.13;5070380;28;20686;-52
2023/07/14 10:19:20;;;;;;;12.98;7.88;;;;;;;30.97;50.32;66291.56;5070080;28;20223;-53
2023/07/14 10:22:11;;;;;;;14.45;8.07;;;;;;;31.48;49.41;66345.28;5073625;28;20201;-53
2023/07/14 10:24:37;;;;;;;15.02;9.00;;;;;;;31.75;50.38;66375.41;5073988;28;20691;-52
2023/07/14 10:27:18;;;;;;;12.05;8.45;;;;;;;31.42;45.81;66339.72;5073899;28;20225;-53
2023/07/14 10:29:44;;;;;;;14.02;8.77;;;;;;;31.60;45.85;66356.06;5073540;28;20763;-52
2023/07/14 10:32:17;;;;;;;12.00;8.15;;;;;;;31.59;48.06;66355.53;5073445;28;20270;-52
2023/07/14 10:34:49;;;;;;;11.75;8.65;;;;;;;32.18;49.20;66426.59;5073514;28;20756;-55
2023/07/14 10:37:24;;;;;;;18.50;8.30;;;;;;;32.41;46.73;66446.50;5073449;28;20240;-52
2023/07/14 10:40:04;;;;;;;12.68;8.30;;;;;;;32.33;46.83;66442.78;5055489;28;20215;-54
2023/07/14 10:42:34;;;;;;;13.45;8.63;;;;;;;32.45;46.20;66453.59;5073340;28;20594;-54
2023/07/14 10:45:00;;;;;;;12.68;7.93;;;;;;;32.74;43.93;66485.97;5073505;28;20197;-58
2023/07/14 10:47:48;;;;;;;10.77;7.88;;;;;;;32.75;46.76;66487.09;5073284;28;20274;-53
2023/07/14 10:50:35;;;;;;;14.35;8.88;;;;;;;32.34;44.88;66438.69;5073386;28;20678;-53
2023/07/14 10:53:24;;;;;;;9.98;8.13;;;;;;;32.26;46.70;66432.91;5073272;28;20223;-52
2023/07/14 10:55:54;;;;;;;15.43;8.13;;;;;;;32.17;46.59;66420.25;5055736;28;20626;-52
2023/07/14 10:58:37;;;;;;;13.15;8.27;;;;;;;32.59;46.91;66469.22;5073269;28;20216;-53
2023/07/14 11:01:13;;;;;;;13.00;8.77;;;;;;;33.05;47.87;66518.00;5054871;28;20230;-52
2023/07/14 11:03:49;;;;;;;26.67;18.55;;;;;;;33.47;47.71;66566.44;5073050;28;20312;-52
2023/07/14 11:06:34;;;;;;;12.02;8.32;;;;;;;33.61;44.59;66582.09;5073348;28;20296;-53
2023/07/14 11:09:00;;;;;;;14.40;8.40;;;;;;;32.67;45.18;66477.59;5073089;28;20236;-52
2023/07/14 11:11:58;;;;;;;14.50;9.23;;;;;;;33.07;42.84;66519.13;5073018;28;20676;-52
2023/07/14 11:14:40;;;;;;;19.23;9.45;;;;;;;32.95;45.25;66509.41;5072973;28;20208;-53
2023/07/14 11:17:19;;;;;;;14.48;8.82;;;;;;;33.32;42.11;66547.03;5071539;28;20236;-52
2023/07/14 11:20:04;;;;;;;11.95;7.93;;;;;;;33.30;41.24;66547.44;5072769;28;20259;-55
2023/07/14 11:22:52;;;;;;;14.05;9.00;;;;;;;33.74;39.76;66594.00;5072762;28;20228;-52
2023/07/14 11:25:21;;;;;;;14.95;8.23;;;;;;;33.82;39.39;66605.56;5072723;28;20205;-52
2023/07/14 11:27:56;;;;;;;12.15;8.45;;;;;;;33.89;41.98;66610.78;5072672;28;20211;-52
2023/07/14 11:30:33;;;;;;;14.82;8.95;;;;;;;33.79;42.39;66604.81;5072794;28;20254;-52
2023/07/14 11:33:24;;;;;;;16.45;8.68;;;;;;;34.17;42.39;66642.09;5072470;28;20207;-53
2023/07/14 11:35:58;;;;;;;12.15;8.20;;;;;;;34.34;42.44;66660.53;5064422;28;20235;-53